Time;durP1;ratioP1;P1;durP2;ratioP2;P2;SDS_P1;SDS_P2;PMS_P1;PMS_P2;Temp;Humidity;BMP_temperature;BMP_pressure;BME280_temperature;BME280_humidity;BME280_pressure;Samples;Min_cycle;Max_cycle;Signal;HPM_P1;HPM_P2
2021/06/06 00:00:29;;;;;;;11.20;10.13;;;;;;;13.78;67.80;101043.47;1647974;85;26662;-76
2021/06/06 00:02:59;;;;;;;12.28;10.43;;;;;;;13.76;67.99;101048.22;1677252;85;26561;-76
2021/06/06 00:05:49;;;;;;;11.95;10.78;;;;;;;13.75;68.24;101041.69;1697563;83;26645;-76
2021/06/06 00:08:16;;;;;;;11.80;10.67;;;;;;;13.73;68.42;101039.68;1692128;83;27577;-76
2021/06/06 00:10:44;;;;;;;11.57;10.32;;;;;;;13.65;68.49;101037.14;1675648;83;26047;-76
2021/06/06 00:13:13;;;;;;;13.78;11.38;;;;;;;13.64;68.33;101039.53;1660111;84;26317;-76
2021/06/06 00:15:43;;;;;;;11.88;10.75;;;;;;;13.62;68.26;101043.74;1635995;85;25834;-76
2021/06/06 00:18:11;;;;;;;14.60;10.98;;;;;;;13.58;68.34;101041.13;1669056;83;25823;-76
2021/06/06 00:20:39;;;;;;;13.30;11.55;;;;;;;13.55;68.44;101040.70;1635325;85;27426;-77
2021/06/06 00:23:07;;;;;;;11.15;10.05;;;;;;;13.50;68.40;101042.62;1685874;82;25702;-76
2021/06/06 00:25:35;;;;;;;12.33;11.12;;;;;;;13.45;68.26;101045.06;1766753;80;25582;-76
2021/06/06 00:28:02;;;;;;;12.53;10.63;;;;;;;13.40;68.46;101050.72;1705366;82;25962;-76
2021/06/06 00:30:30;;;;;;;13.40;10.90;;;;;;;13.37;68.73;101048.40;1646526;82;25998;-76
2021/06/06 00:32:57;;;;;;;13.72;11.00;;;;;;;13.35;68.78;101044.56;1736924;80;27641;-76
2021/06/06 00:35:25;;;;;;;12.35;10.70;;;;;;;13.32;68.88;101044.97;1767495;80;25999;-76
2021/06/06 00:37:52;;;;;;;12.23;10.93;;;;;;;13.28;69.15;101041.52;1737432;82;26563;-76
2021/06/06 00:40:25;;;;;;;13.03;11.05;;;;;;;13.22;68.95;101041.75;1674924;83;26488;-76
2021/06/06 00:42:54;;;;;;;11.65;10.50;;;;;;;13.20;69.14;101045.66;1724345;80;26506;-76
2021/06/06 00:45:27;;;;;;;11.33;10.15;;;;;;;13.15;69.06;101047.07;1761318;80;28041;-76
2021/06/06 00:47:54;;;;;;;13.55;9.53;;;;;;;13.13;68.98;101047.78;1769194;80;26539;-76
2021/06/06 00:50:45;;;;;;;16.65;10.50;;;;;;;13.10;69.12;101043.30;1738233;80;26487;-76
2021/06/06 00:53:24;;;;;;;10.80;9.75;;;;;;;13.06;69.12;101039.34;1744622;80;35947;-76
2021/06/06 00:55:53;;;;;;;11.78;10.60;;;;;;;13.03;69.53;101036.48;1739558;80;26354;-76
2021/06/06 00:58:20;;;;;;;11.70;10.50;;;;;;;13.03;69.88;101039.17;1738436;80;27422;-76
2021/06/06 01:00:52;;;;;;;13.32;11.68;;;;;;;13.04;70.15;101037.33;1714530;80;25929;-76
2021/06/06 01:03:25;;;;;;;12.47;11.15;;;;;;;13.05;70.35;101034.97;1753471;80;25845;-76
2021/06/06 01:05:59;;;;;;;15.70;11.08;;;;;;;13.04;70.73;101034.64;1769359;80;25846;-76
2021/06/06 01:08:32;;;;;;;11.95;10.65;;;;;;;13.04;70.42;101031.95;1773850;80;25766;-76
2021/06/06 01:11:09;;;;;;;14.63;11.75;;;;;;;13.04;70.54;101037.33;1705306;80;27547;-76
2021/06/06 01:13:47;;;;;;;16.57;12.43;;;;;;;13.04;70.56;101034.64;1703636;80;26079;-76
2021/06/06 01:16:19;;;;;;;14.63;12.18;;;;;;;13.02;70.82;101029.96;1680236;83;26539;-76
2021/06/06 01:18:50;;;;;;;12.88;11.53;;;;;;;12.99;70.82;101035.71;1734848;80;26341;-76
2021/06/06 01:21:36;;;;;;;13.38;12.07;;;;;;;12.95;70.84;101030.40;1744661;80;25877;-76
2021/06/06 01:24:31;;;;;;;17.75;11.28;;;;;;;12.92;71.00;101031.61;1744689;80;28507;-76
2021/06/06 01:27:06;;;;;;;15.13;11.43;;;;;;;12.89;71.00;101026.63;1772930;80;26114;-76
2021/06/06 01:29:44;;;;;;;15.03;12.03;;;;;;;12.87;70.79;101024.62;1771515;80;25561;-76
2021/06/06 01:32:41;;;;;;;11.50;10.40;;;;;;;12.85;70.69;101025.86;1726550;80;25843;-76
2021/06/06 01:35:17;;;;;;;11.22;10.03;;;;;;;12.84;70.85;101031.73;1750475;80;26391;-76
2021/06/06 01:37:53;;;;;;;14.23;11.15;;;;;;;12.82;70.97;101038.33;1762126;80;27157;-76
2021/06/06 01:40:25;;;;;;;12.78;11.03;;;;;;;12.82;70.93;101039.16;1766927;80;26004;-76
2021/06/06 01:43:02;;;;;;;12.05;10.75;;;;;;;12.81;70.86;101034.80;1767649;80;25796;-76
2021/06/06 01:45:37;;;;;;;12.15;10.82;;;;;;;12.82;70.69;101033.78;1737223;82;26419;-76
2021/06/06 01:48:09;;;;;;;15.48;11.35;;;;;;;12.82;70.70;101032.44;1731360;82;26492;-76
2021/06/06 01:50:46;;;;;;;16.25;11.28;;;;;;;12.83;70.81;101031.41;1766577;80;27662;-76
2021/06/06 01:53:15;;;;;;;15.72;12.20;;;;;;;12.80;70.60;101039.87;1726932;81;26507;-76
2021/06/06 01:55:48;;;;;;;13.38;11.97;;;;;;;12.80;70.86;101036.34;1763897;80;26747;-76
2021/06/06 01:58:17;;;;;;;14.20;11.38;;;;;;;12.73;70.72;101036.27;1765444;80;25817;-76
2021/06/06 02:01:09;;;;;;;12.25;11.05;;;;;;;12.66;70.84;101032.66;1773170;80;25582;-76
2021/06/06 02:03:36;;;;;;;14.13;10.65;;;;;;;12.64;70.80;101037.39;1740679;80;27534;-76
2021/06/06 02:06:08;;;;;;;12.15;10.93;;;;;;;12.61;70.76;101031.58;1742626;80;25747;-76
2021/06/06 02:08:36;;;;;;;;;;;;;;;12.59;70.62;101033.13;1712505;82;26635;-76
2021/06/06 02:11:25;;;;;;;11.78;10.58;;;;;;;12.54;70.61;101030.66;1722800;82;26564;-76
2021/06/06 02:14:05;;;;;;;11.55;10.45;;;;;;;12.48;70.58;101035.45;1731302;82;26484;-76
2021/06/06 02:16:40;;;;;;;13.83;10.40;;;;;;;12.43;70.54;101036.01;1728966;82;27474;-76
2021/06/06 02:19:09;;;;;;;16.48;11.88;;;;;;;12.36;70.48;101034.58;1769271;80;25824;-76
2021/06/06 02:21:38;;;;;;;12.78;11.48;;;;;;;12.34;70.85;101037.97;1691021;80;26716;-76
2021/06/06 02:24:07;;;;;;;14.00;11.73;;;;;;;12.31;70.57;101038.86;1703425;81;26531;-76
2021/06/06 02:26:55;;;;;;;15.43;12.13;;;;;;;12.25;70.60;101035.05;1719120;81;25628;-76
2021/06/06 02:29:37;;;;;;;13.70;12.33;;;;;;;12.22;70.68;101034.61;1707222;83;28254;-76
2021/06/06 02:32:30;;;;;;;16.27;12.33;;;;;;;12.22;70.83;101035.95;1693510;84;26015;-76
2021/06/06 02:35:23;;;;;;;15.63;12.47;;;;;;;12.24;71.15;101041.46;1693764;84;26001;-76
2021/06/06 02:38:09;;;;;;;13.72;11.80;;;;;;;12.24;71.45;101036.59;1674881;84;25984;-76
2021/06/06 02:40:49;;;;;;;12.60;11.30;;;;;;;12.26;71.55;101034.55;1684566;83;25798;-76
2021/06/06 02:43:38;;;;;;;13.00;11.48;;;;;;;12.27;71.48;101035.70;1657867;85;27383;-76
2021/06/06 02:46:09;;;;;;;16.48;11.90;;;;;;;12.29;71.61;101042.25;1636666;84;25864;-77
2021/06/06 02:48:44;;;;;;;14.15;12.43;;;;;;;12.28;71.37;101045.94;1677518;84;25917;-76
2021/06/06 02:51:18;;;;;;;13.80;11.65;;;;;;;12.26;71.28;101039.92;1690797;84;26313;-76
2021/06/06 02:53:58;;;;;;;13.08;11.78;;;;;;;12.21;71.33;101044.51;1664955;81;25923;-76
2021/06/06 02:56:29;;;;;;;13.78;12.37;;;;;;;12.18;71.12;101043.56;1684090;83;28213;-76
2021/06/06 02:59:16;;;;;;;13.95;12.55;;;;;;;12.15;71.40;101043.08;1688024;83;25818;-76
2021/06/06 03:01:54;;;;;;;13.15;11.78;;;;;;;12.09;71.18;101043.83;1710988;83;25169;-76
2021/06/06 03:04:26;;;;;;;13.87;12.47;;;;;;;12.04;71.30;101043.03;1657079;84;26322;-76
2021/06/06 03:07:03;;;;;;;14.35;11.38;;;;;;;12.01;71.47;101038.05;1704778;83;25919;-76
2021/06/06 03:09:30;;;;;;;14.90;12.45;;;;;;;12.04;71.73;101035.52;1707225;83;27526;-76
2021/06/06 03:12:08;;;;;;;15.88;13.00;;;;;;;12.08;72.05;101038.15;1679033;84;25851;-76
2021/06/06 03:14:41;;;;;;;18.15;11.93;;;;;;;12.09;72.31;101037.95;1678016;84;25932;-76
2021/06/06 03:17:27;;;;;;;13.72;11.50;;;;;;;12.16;72.61;101044.75;1679567;84;25813;-76
2021/06/06 03:19:58;;;;;;;12.68;11.35;;;;;;;12.24;72.77;101045.99;1663301;84;25950;-76
2021/06/06 03:22:32;;;;;;;12.45;11.15;;;;;;;12.30;72.79;101048.77;1708466;83;28133;-76
2021/06/06 03:25:08;;;;;;;12.93;11.63;;;;;;;12.37;72.62;101047.52;1678431;81;25926;-76
2021/06/06 03:27:41;;;;;;;13.08;11.70;;;;;;;12.43;72.60;101047.26;1709298;82;26450;-76
2021/06/06 03:30:43;;;;;;;15.65;12.58;;;;;;;12.49;72.53;101046.53;1691464;83;25925;-76
2021/06/06 03:33:22;;;;;;;12.82;11.53;;;;;;;12.54;72.47;101042.75;1721608;81;26004;-76
2021/06/06 03:35:51;;;;;;;12.78;10.85;;;;;;;12.62;72.73;101035.91;1693375;82;27345;-76
2021/06/06 03:38:19;;;;;;;12.03;10.28;;;;;;;12.69;72.73;101044.39;1668927;83;25857;-76
2021/06/06 03:40:47;;;;;;;16.27;11.50;;;;;;;12.77;72.60;101035.36;1730095;80;25799;-76
2021/06/06 03:43:31;;;;;;;12.10;10.85;;;;;;;12.87;72.95;101039.41;1720649;82;26391;-76
2021/06/06 03:45:58;;;;;;;13.22;11.22;;;;;;;12.97;72.90;101039.11;1698587;82;26408;-76
2021/06/06 03:48:27;;;;;;;14.73;11.95;;;;;;;13.05;72.94;101032.28;1696608;83;27528;-76
2021/06/06 03:50:54;;;;;;;15.58;12.15;;;;;;;13.14;73.16;101035.17;1670603;83;25885;-76
2021/06/06 03:53:25;;;;;;;14.75;11.00;;;;;;;13.22;73.59;101039.06;1736178;81;25867;-76
2021/06/06 03:55:54;;;;;;;12.13;10.87;;;;;;;13.28;73.89;101035.59;1712914;81;25984;-76
2021/06/06 03:58:23;;;;;;;12.33;11.10;;;;;;;13.35;74.09;101039.69;1706496;81;26568;-76
2021/06/06 04:00:51;;;;;;;11.40;10.05;;;;;;;13.47;74.36;101038.16;1663716;81;27585;-76
2021/06/06 04:03:20;;;;;;;12.58;11.18;;;;;;;13.60;74.80;101035.57;1737272;81;25664;-76
2021/06/06 04:05:49;;;;;;;13.18;11.03;;;;;;;13.70;74.50;101042.28;1726665;82;25653;-76
2021/06/06 04:08:19;;;;;;;12.30;10.88;;;;;;;13.77;74.43;101038.28;1692081;81;26048;-76
2021/06/06 04:10:49;;;;;;;12.03;10.78;;;;;;;13.85;74.43;101041.66;1721444;82;25831;-76
2021/06/06 04:13:17;;;;;;;13.80;11.35;;;;;;;13.93;74.47;101031.23;1721742;81;28229;-76
2021/06/06 04:15:44;;;;;;;13.83;11.30;;;;;;;13.98;74.45;101034.68;1701363;82;25993;-76
2021/06/06 04:18:23;;;;;;;16.15;10.90;;;;;;;14.04;74.47;101032.03;1701737;83;25890;-76
2021/06/06 04:20:54;;;;;;;11.85;9.75;;;;;;;14.17;74.44;101032.11;1686604;83;25901;-76
2021/06/06 04:23:22;;;;;;;17.50;11.20;;;;;;;14.31;74.18;101032.50;1712426;83;25827;-76
2021/06/06 04:25:50;;;;;;;18.37;10.45;;;;;;;14.43;74.23;101031.42;1675981;83;28161;-76
2021/06/06 04:28:20;;;;;;;12.03;9.50;;;;;;;14.57;74.05;101033.97;1723632;81;25850;-76
2021/06/06 04:30:50;;;;;;;13.62;10.45;;;;;;;14.64;73.85;101034.83;1732647;82;26361;-76
2021/06/06 04:33:18;;;;;;;10.75;9.53;;;;;;;14.74;73.77;101031.73;1715342;82;25880;-76
2021/06/06 04:35:47;;;;;;;14.70;9.63;;;;;;;14.81;73.55;101035.28;1685082;82;25765;-76
2021/06/06 04:38:20;;;;;;;10.70;9.60;;;;;;;14.90;73.50;101036.77;1691701;82;27478;-76
2021/06/06 04:40:48;;;;;;;15.83;9.55;;;;;;;14.98;73.42;101036.56;1727739;80;25629;-76
2021/06/06 04:43:18;;;;;;;12.63;10.55;;;;;;;15.07;73.37;101041.25;1710544;83;25822;-76
2021/06/06 04:45:45;;;;;;;11.10;9.75;;;;;;;15.16;73.54;101048.13;1700592;83;25898;-76
2021/06/06 04:48:21;;;;;;;11.15;9.98;;;;;;;15.23;73.55;101044.89;1736753;81;25832;-76
2021/06/06 04:50:51;;;;;;;12.13;9.73;;;;;;;15.31;73.67;101044.17;1735582;81;27450;-76
2021/06/06 04:53:18;;;;;;;12.85;9.25;;;;;;;15.41;73.46;101046.48;1674621;82;25858;-77
2021/06/06 04:55:47;;;;;;;13.18;9.58;;;;;;;15.53;73.25;101045.35;1713568;82;26588;-76
2021/06/06 04:58:17;;;;;;;12.37;8.48;;;;;;;15.62;73.06;101045.46;1713032;82;26573;-76
2021/06/06 05:00:44;;;;;;;15.10;9.50;;;;;;;15.71;72.75;101047.75;1705465;82;25648;-76
2021/06/06 05:03:13;;;;;;;11.55;8.80;;;;;;;15.78;72.57;101051.25;1673855;82;27699;-76
2021/06/06 05:05:42;;;;;;;11.88;8.33;;;;;;;15.89;72.89;101049.27;1719823;82;25968;-76
2021/06/06 05:08:13;;;;;;;12.95;7.72;;;;;;;15.98;72.53;101048.02;1718504;82;25665;-76
2021/06/06 05:10:43;;;;;;;10.80;8.13;;;;;;;16.06;72.17;101047.78;1676526;82;25748;-76
2021/06/06 05:13:12;;;;;;;11.60;8.07;;;;;;;16.17;72.12;101050.35;1679723;83;25196;-76
2021/06/06 05:15:40;;;;;;;10.30;8.00;;;;;;;16.27;71.88;101052.62;1717386;82;27409;-76
2021/06/06 05:18:09;;;;;;;11.45;7.50;;;;;;;16.39;72.00;101048.20;1717428;82;25822;-76
2021/06/06 05:20:45;;;;;;;12.07;7.55;;;;;;;16.49;72.11;101053.47;1674514;82;25757;-76
2021/06/06 05:23:13;;;;;;;9.23;7.50;;;;;;;16.58;71.54;101056.28;1683902;82;25715;-76
2021/06/06 05:25:42;;;;;;;8.23;7.30;;;;;;;16.64;71.49;101049.17;1718628;82;25599;-76
2021/06/06 05:28:15;;;;;;;7.45;6.42;;;;;;;16.74;70.72;101049.56;1707847;83;27589;-76
2021/06/06 05:30:43;;;;;;;11.80;6.78;;;;;;;16.81;70.56;101052.52;1730206;82;25322;-77
2021/06/06 05:33:11;;;;;;;9.28;7.30;;;;;;;16.88;70.36;101051.13;1668720;83;25932;-77
2021/06/06 05:35:38;;;;;;;9.53;6.58;;;;;;;16.94;70.04;101047.04;1734150;82;26445;-76
2021/06/06 05:38:10;;;;;;;8.60;7.05;;;;;;;17.04;69.75;101052.51;1739375;81;25628;-77
2021/06/06 05:40:39;;;;;;;13.35;6.65;;;;;;;17.11;69.57;101057.37;1679748;83;27976;-76
2021/06/06 05:43:06;;;;;;;8.18;6.97;;;;;;;17.20;69.59;101057.39;1667659;83;26206;-76
2021/06/06 05:45:34;;;;;;;9.45;6.45;;;;;;;17.30;69.50;101060.46;1706449;83;26622;-76
2021/06/06 05:48:03;;;;;;;8.40;6.10;;;;;;;17.41;69.12;101061.08;1710218;83;26555;-76
2021/06/06 05:50:33;;;;;;;6.58;5.72;;;;;;;17.50;68.69;101061.16;1670051;83;25983;-76
2021/06/06 05:53:18;;;;;;;10.63;5.97;;;;;;;17.63;68.83;101062.41;1670654;83;28165;-76
2021/06/06 05:55:45;;;;;;;8.83;5.90;;;;;;;17.80;68.65;101062.66;1704813;83;26544;-76
2021/06/06 05:58:14;;;;;;;6.85;6.15;;;;;;;17.88;68.01;101065.92;1737628;81;25877;-76
2021/06/06 06:00:44;;;;;;;9.58;5.42;;;;;;;17.98;67.41;101066.27;1692002;82;26937;-76
2021/06/06 06:03:12;;;;;;;7.95;5.40;;;;;;;18.07;67.24;101066.80;1686762;82;26449;-76
2021/06/06 06:05:41;;;;;;;9.60;5.50;;;;;;;18.13;66.72;101069.45;1738849;82;27637;-75
2021/06/06 06:08:19;;;;;;;12.05;5.40;;;;;;;18.19;66.49;101063.64;1735982;82;25792;-75
2021/06/06 06:10:48;;;;;;;9.58;5.37;;;;;;;18.30;66.98;101064.25;1714610;82;25875;-75
2021/06/06 06:13:19;;;;;;;8.55;6.42;;;;;;;18.38;66.56;101064.78;1686711;82;26490;-76
2021/06/06 06:15:46;;;;;;;;;;;;;;;18.51;66.94;101068.41;1720285;82;25876;-76
2021/06/06 06:18:16;;;;;;;11.55;5.62;;;;;;;18.60;65.09;101057.55;1692429;82;27621;-76
2021/06/06 06:20:43;;;;;;;8.48;5.50;;;;;;;18.65;65.91;101063.14;1693415;82;25990;-76
2021/06/06 06:23:11;;;;;;;6.97;5.28;;;;;;;18.77;66.33;101077.59;1693727;82;25961;-76
2021/06/06 06:25:38;;;;;;;11.08;5.67;;;;;;;18.88;65.99;101067.31;1719755;82;25877;-76
2021/06/06 06:28:06;;;;;;;8.18;5.03;;;;;;;19.01;66.19;101069.30;1666053;83;25887;-76
2021/06/06 06:30:37;;;;;;;6.95;5.72;;;;;;;19.14;66.41;101069.63;1634870;83;28740;-75
2021/06/06 06:33:06;;;;;;;7.33;5.42;;;;;;;19.23;65.11;101069.09;1735288;80;25939;-76
2021/06/06 06:35:35;;;;;;;7.72;5.10;;;;;;;19.33;65.69;101070.42;1718052;80;26452;-76
2021/06/06 06:38:03;;;;;;;10.15;5.33;;;;;;;19.44;66.08;101074.53;1747136;78;26750;-76
2021/06/06 06:40:31;;;;;;;9.98;4.97;;;;;;;19.54;64.53;101069.91;1750065;78;25350;-76
2021/06/06 06:42:59;;;;;;;8.05;5.22;;;;;;;19.63;64.53;101069.31;1748125;78;27449;-76
2021/06/06 06:45:31;;;;;;;9.08;4.80;;;;;;;19.73;64.21;101072.82;1772941;80;25864;-76
2021/06/06 06:48:01;;;;;;;8.45;4.65;;;;;;;19.83;64.19;101073.05;1743412;80;25768;-76
2021/06/06 06:50:29;;;;;;;;;;;;;;;19.92;64.50;101074.37;1747118;78;26651;-76
2021/06/06 06:52:57;;;;;;;5.25;4.50;;;;;;;20.04;63.70;101081.17;1747847;78;26506;-76
2021/06/06 06:55:25;;;;;;;7.80;4.60;;;;;;;20.10;62.69;101080.22;1754677;78;28057;-76
2021/06/06 06:57:55;;;;;;;5.28;4.72;;;;;;;20.14;63.22;101081.40;1784023;78;25325;-76
2021/06/06 07:00:27;;;;;;;7.00;3.98;;;;;;;20.22;62.91;101080.54;1716239;80;26556;-76
2021/06/06 07:02:54;;;;;;;4.75;4.05;;;;;;;20.31;62.05;101074.20;1772634;80;25828;-76
2021/06/06 07:05:21;;;;;;;5.35;3.98;;;;;;;20.39;61.87;101077.91;1766789;80;25964;-76
2021/06/06 07:07:48;;;;;;;6.85;3.72;;;;;;;20.49;61.62;101069.95;1727676;80;27458;-76
2021/06/06 07:10:21;;;;;;;7.40;4.17;;;;;;;20.58;62.20;101070.70;1719018;80;25789;-76
2021/06/06 07:12:48;;;;;;;5.75;4.12;;;;;;;20.65;60.56;101067.85;1768270;78;25842;-76
2021/06/06 07:15:16;;;;;;;6.08;3.55;;;;;;;20.72;60.30;101069.35;1765538;78;26660;-76
2021/06/06 07:17:44;;;;;;;4.95;4.08;;;;;;;20.78;60.12;101064.30;1741158;78;26556;-76
2021/06/06 07:20:16;;;;;;;12.68;3.98;;;;;;;20.89;60.36;101067.23;1706430;80;27678;-76
2021/06/06 07:22:43;;;;;;;4.05;3.62;;;;;;;20.99;60.29;101059.25;1733959;80;26095;-76
2021/06/06 07:25:13;;;;;;;4.97;3.92;;;;;;;21.08;58.97;101057.83;1738778;80;25826;-76
2021/06/06 07:27:43;;;;;;;4.03;3.30;;;;;;;21.12;59.29;101055.73;1772503;79;25830;-77
2021/06/06 07:30:15;;;;;;;4.35;3.60;;;;;;;21.23;58.90;101056.75;1711545;80;25833;-76
2021/06/06 07:32:42;;;;;;;10.43;3.50;;;;;;;21.27;58.42;101056.02;1770104;80;28144;-76
2021/06/06 07:35:11;;;;;;;7.35;3.65;;;;;;;21.34;58.63;101055.86;1771342;80;25901;-76
2021/06/06 07:37:38;;;;;;;7.92;3.50;;;;;;;21.40;58.15;101052.97;1737526;78;25802;-76
2021/06/06 07:40:08;;;;;;;5.03;3.20;;;;;;;21.49;57.48;101058.28;1709852;80;26475;-76
2021/06/06 07:42:35;;;;;;;4.12;3.47;;;;;;;21.60;56.17;101054.38;1774380;80;25874;-76
2021/06/06 07:45:06;;;;;;;4.85;2.90;;;;;;;21.67;57.17;101054.49;1718691;80;28227;-77
2021/06/06 07:47:33;;;;;;;;;;;;;;;21.73;55.99;101058.11;1687382;80;25845;-77
2021/06/06 07:50:00;;;;;;;6.83;3.25;;;;;;;21.79;56.57;101049.77;1654798;83;25833;-76
2021/06/06 07:52:27;;;;;;;8.28;2.83;;;;;;;21.85;56.85;101054.28;1769278;80;26959;-77
2021/06/06 07:54:54;;;;;;;5.33;3.15;;;;;;;21.91;55.38;101053.27;1708550;82;25975;-77
2021/06/06 07:57:21;;;;;;;7.00;3.90;;;;;;;21.94;55.07;101051.95;1740506;80;28757;-76
2021/06/06 07:59:48;;;;;;;6.58;3.33;;;;;;;22.01;54.51;101053.41;1739843;80;25779;-77
2021/06/06 08:02:15;;;;;;;5.87;3.10;;;;;;;22.07;54.97;101059.76;1771465;78;26120;-76
2021/06/06 08:04:42;;;;;;;9.05;3.05;;;;;;;22.14;54.64;101048.97;1738243;80;26505;-76
2021/06/06 08:07:09;;;;;;;7.97;3.12;;;;;;;22.20;54.63;101050.69;1721924;80;25806;-77
2021/06/06 08:09:36;;;;;;;3.52;2.98;;;;;;;22.30;54.42;101050.01;1736511;80;27537;-77
2021/06/06 08:12:04;;;;;;;8.08;3.17;;;;;;;22.36;54.24;101044.90;1766182;80;25782;-77
2021/06/06 08:14:31;;;;;;;8.48;2.90;;;;;;;22.41;52.95;101054.50;1715485;80;25593;-76
2021/06/06 08:16:58;;;;;;;5.72;2.80;;;;;;;22.45;53.73;101053.47;1732790;78;26404;-77
2021/06/06 08:19:25;;;;;;;6.55;3.45;;;;;;;22.50;52.63;101058.98;1680471;82;25858;-77
2021/06/06 08:21:52;;;;;;;5.78;2.95;;;;;;;22.53;52.14;101057.95;1703107;81;27454;-77
2021/06/06 08:24:19;;;;;;;7.97;3.05;;;;;;;22.56;51.87;101050.59;1688636;83;25933;-77
2021/06/06 08:26:46;;;;;;;5.50;2.90;;;;;;;22.61;52.97;101052.06;1658847;82;25834;-76
2021/06/06 08:29:13;;;;;;;9.03;2.87;;;;;;;22.70;52.86;101045.08;1697856;82;25908;-77
2021/06/06 08:31:42;;;;;;;9.23;2.60;;;;;;;22.78;52.80;101055.55;1735537;81;25837;-77
2021/06/06 08:34:10;;;;;;;10.20;2.47;;;;;;;22.86;52.30;101052.35;1683865;83;27590;-76
2021/06/06 08:36:45;;;;;;;3.75;2.83;;;;;;;22.92;51.93;101051.88;1652721;83;25994;-77
2021/06/06 08:39:21;;;;;;;6.17;2.55;;;;;;;22.93;50.81;101054.35;1737641;81;25937;-76
2021/06/06 08:42:05;;;;;;;8.38;2.40;;;;;;;22.96;51.29;101049.75;1687587;83;26566;-76
2021/06/06 08:44:37;;;;;;;3.30;2.52;;;;;;;23.04;52.05;101049.81;1712173;83;25971;-77
2021/06/06 08:47:23;;;;;;;6.08;3.60;;;;;;;23.13;51.19;101043.34;1685296;83;28116;-77
2021/06/06 08:49:56;;;;;;;3.22;2.35;;;;;;;23.19;50.42;101051.34;1675972;83;25959;-77
2021/06/06 08:52:43;;;;;;;4.20;2.42;;;;;;;23.21;49.73;101050.53;1693819;83;25896;-77
2021/06/06 08:55:49;;;;;;;2.95;2.40;;;;;;;23.25;48.65;101054.93;1712820;83;25989;-76
2021/06/06 08:58:37;;;;;;;3.40;2.42;;;;;;;23.23;48.48;101047.53;1662498;83;25975;-77
2021/06/06 09:01:30;;;;;;;4.60;2.75;;;;;;;23.14;48.65;101051.84;1729946;81;27480;-77
2021/06/06 09:04:00;;;;;;;4.85;2.47;;;;;;;23.07;49.36;101051.22;1684092;83;26457;-77
2021/06/06 09:06:50;;;;;;;10.88;2.98;;;;;;;23.11;48.71;101049.08;1706984;83;25944;-76
2021/06/06 09:09:28;;;;;;;4.47;2.60;;;;;;;23.15;49.12;101044.73;1652953;83;25976;-76
2021/06/06 09:12:06;;;;;;;5.37;2.87;;;;;;;23.22;48.47;101042.63;1708269;83;26433;-76
2021/06/06 09:14:33;;;;;;;3.22;2.33;;;;;;;23.25;48.69;101042.62;1755681;80;27117;-77
2021/06/06 09:17:07;;;;;;;8.98;3.00;;;;;;;23.14;47.95;101035.44;1755589;80;26188;-78
2021/06/06 09:19:56;;;;;;;4.62;2.52;;;;;;;23.21;48.97;101039.59;1699697;80;25894;-78
2021/06/06 09:22:37;;;;;;;5.95;2.55;;;;;;;23.34;49.92;101035.11;1669476;83;26462;-78
2021/06/06 09:25:33;;;;;;;9.60;3.17;;;;;;;23.54;49.55;101033.92;1683245;83;25834;-77
2021/06/06 09:28:07;;;;;;;4.35;2.52;;;;;;;23.67;49.20;101027.98;1704174;83;27484;-77
2021/06/06 09:30:37;;;;;;;5.30;2.55;;;;;;;23.78;48.54;101039.02;1651736;83;25858;-78
2021/06/06 09:33:22;;;;;;;6.72;2.95;;;;;;;23.79;48.26;101034.64;1685765;83;25792;-78
2021/06/06 09:35:54;;;;;;;3.62;2.70;;;;;;;23.73;48.93;101030.23;1676235;83;25869;-78
2021/06/06 09:38:38;;;;;;;6.00;2.58;;;;;;;23.61;48.34;101025.47;1735185;81;25868;-77
2021/06/06 09:41:23;;;;;;;5.53;2.58;;;;;;;23.57;47.60;101027.91;1681125;83;26890;-77
2021/06/06 09:44:10;;;;;;;5.25;2.58;;;;;;;23.47;47.25;101037.41;1703447;83;25778;-78
2021/06/06 09:46:55;;;;;;;4.75;2.75;;;;;;;23.47;47.67;101029.21;1710572;82;26608;-77
2021/06/06 09:49:39;;;;;;;5.42;2.52;;;;;;;23.50;47.33;101018.30;1704404;83;26532;-78
2021/06/06 09:52:41;;;;;;;7.58;2.45;;;;;;;23.45;46.70;101023.72;1681533;83;25859;-78
2021/06/06 09:55:25;;;;;;;4.42;2.70;;;;;;;23.52;46.97;101016.13;1706425;83;27492;-78
2021/06/06 09:58:12;;;;;;;6.03;2.47;;;;;;;23.73;47.37;101026.13;1679674;83;26506;-78
2021/06/06 10:00:44;;;;;;;5.35;2.37;;;;;;;23.88;47.24;101022.12;1705654;83;26539;-78
2021/06/06 10:03:38;;;;;;;7.50;2.58;;;;;;;23.99;45.32;101019.73;1682001;83;26633;-77
2021/06/06 10:06:16;;;;;;;7.22;2.47;;;;;;;24.08;45.27;101019.52;1732317;81;26311;-78
2021/06/06 10:08:46;;;;;;;6.90;2.98;;;;;;;24.12;45.16;101021.20;1701856;82;27555;-78
2021/06/06 10:11:17;;;;;;;4.37;1.95;;;;;;;24.00;44.94;101014.53;1715689;82;25483;-77
2021/06/06 10:13:48;;;;;;;5.67;1.98;;;;;;;23.90;46.29;101018.58;1685980;82;25783;-77
2021/06/06 10:16:20;;;;;;;3.72;2.22;;;;;;;23.97;45.60;101021.08;1707674;83;26513;-77
2021/06/06 10:19:11;;;;;;;8.43;2.90;;;;;;;24.04;45.22;101011.56;1688523;83;25777;-78
2021/06/06 10:21:39;;;;;;;2.90;2.20;;;;;;;24.13;44.61;101022.30;1677229;83;28157;-78
2021/06/06 10:24:20;;;;;;;8.95;2.42;;;;;;;24.13;45.25;101016.83;1689347;83;26339;-78
2021/06/06 10:27:08;;;;;;;6.15;2.40;;;;;;;24.11;44.82;101018.17;1703688;83;25937;-78
2021/06/06 10:29:40;;;;;;;2.72;2.33;;;;;;;24.21;46.40;101012.74;1699221;83;26597;-77
2021/06/06 10:32:31;;;;;;;6.45;2.83;;;;;;;24.19;44.80;101008.91;1735198;81;25908;-77
2021/06/06 10:35:22;;;;;;;6.08;2.35;;;;;;;24.20;44.87;101007.00;1700623;82;27486;-78
2021/06/06 10:37:53;;;;;;;4.35;2.58;;;;;;;24.31;44.70;101008.70;1770342;80;25865;-78
2021/06/06 10:40:48;;;;;;;6.33;2.50;;;;;;;24.23;44.46;101003.75;1788100;79;26002;-77
2021/06/06 10:43:40;;;;;;;4.17;2.30;;;;;;;24.16;44.19;101008.62;1772589;80;25898;-78
2021/06/06 10:46:26;;;;;;;5.83;2.42;;;;;;;24.07;44.25;101006.11;1710140;80;25841;-78
2021/06/06 10:49:27;;;;;;;5.37;2.40;;;;;;;23.91;44.14;101001.05;1738878;80;27519;-78
2021/06/06 10:51:57;;;;;;;;;;;;;;;23.75;43.26;101001.53;1745314;80;25894;-78
2021/06/06 10:54:44;;;;;;;10.08;2.95;;;;;;;23.72;43.00;100995.73;1769564;80;26365;-77
2021/06/06 10:57:26;;;;;;;2.95;2.15;;;;;;;23.86;44.46;100996.94;1747087;80;26613;-78
2021/06/06 11:00:19;;;;;;;5.97;2.65;;;;;;;24.08;42.98;100992.16;1739901;80;26038;-78
2021/06/06 11:03:13;;;;;;;4.80;3.20;;;;;;;24.26;43.44;100993.61;1770409;79;28243;-78
2021/06/06 11:05:47;;;;;;;7.03;2.42;;;;;;;24.44;42.79;100993.95;1745525;79;26246;-77
2021/06/06 11:08:33;;;;;;;3.12;2.55;;;;;;;24.55;41.57;100990.70;1737582;80;25299;-77
2021/06/06 11:11:38;;;;;;;5.97;2.52;;;;;;;24.64;42.80;100987.72;1740160;80;25954;-78
2021/06/06 11:14:16;;;;;;;5.97;2.10;;;;;;;24.73;41.68;100988.84;1736298;80;25942;-77
2021/06/06 11:16:53;;;;;;;6.80;2.45;;;;;;;24.81;41.53;100987.51;1745882;80;27999;-79
2021/06/06 11:19:33;;;;;;;4.25;2.40;;;;;;;24.80;40.71;100987.25;1739951;80;25910;-78
2021/06/06 11:22:17;;;;;;;3.95;2.35;;;;;;;24.81;40.31;100983.40;1719227;80;25853;-78
2021/06/06 11:24:48;;;;;;;3.47;2.00;;;;;;;24.86;41.45;100982.87;1772253;80;25892;-78
2021/06/06 11:27:22;;;;;;;5.87;2.22;;;;;;;24.97;41.48;100982.34;1741804;80;26457;-78
2021/06/06 11:30:24;;;;;;;6.47;2.20;;;;;;;25.08;39.94;100975.24;1742114;80;27489;-78
2021/06/06 11:33:08;;;;;;;6.35;2.42;;;;;;;25.17;39.46;100974.16;1742227;80;25930;-78
2021/06/06 11:35:40;;;;;;;3.58;2.12;;;;;;;25.24;40.14;100976.88;1757563;80;25814;-78
2021/06/06 11:38:40;;;;;;;5.60;2.17;;;;;;;25.32;40.65;100972.75;1739471;80;26398;-78
2021/06/06 11:41:23;;;;;;;5.83;2.20;;;;;;;25.44;38.68;100973.34;1742614;80;25971;-78
2021/06/06 11:43:59;;;;;;;2.83;2.12;;;;;;;25.53;39.04;100962.09;1749626;80;28311;-78
2021/06/06 11:46:49;;;;;;;4.37;2.22;;;;;;;25.56;38.63;100971.12;1757627;80;25804;-78
2021/06/06 11:49:46;;;;;;;6.12;1.82;;;;;;;25.40;37.79;100970.02;1755316;80;25953;-78
2021/06/06 11:52:24;;;;;;;9.28;2.80;;;;;;;25.10;38.43;100965.36;1746555;80;26478;-78